This is the latest recevied weather packets stored in our database for station/object DB0ADS-6. If no packets are shown the sender has not sent any weather packets the latest 10 day(s).
| Time | Temp. | Humidity | Pressure | Rain* | Wind** | Luminosity | Snow |
|---|---|---|---|---|---|---|---|
| 1777334724 | 9.44° C | 50% | 1017.4 hPa | 0 mm | - | - | - |
| 1777329655 | 10° C | 47% | 1017.6 hPa | 0 mm | - | - | - |
| 1777329374 | 10° C | 47% | 1017.6 hPa | 0 mm | - | - | - |
| 1777328750 | 10.56° C | 47% | 1017.6 hPa | 0 mm | - | - | - |
| 1777313724 | 13.89° C | 32% | 1017.5 hPa | 0 mm | - | - | - |
| 1777313423 | 14.44° C | 30% | 1017.5 hPa | 0 mm | - | - | - |
| 1777313121 | 14.44° C | 30% | 1017.6 hPa | 0 mm | - | - | - |
| 1777311371 | 16.11° C | 27% | 1017.5 hPa | 0 mm | - | - | - |
| 1777311069 | 16.11° C | 27% | 1017.5 hPa | 0 mm | - | - | - |
| 1777310767 | 16.11° C | 26% | 1017.6 hPa | 0 mm | - | - | - |
| 1777310466 | 16.11° C | 26% | 1017.5 hPa | 0 mm | - | - | - |
| 1777310164 | 16.11° C | 27% | 1017.5 hPa | 0 mm | - | - | - |
| 1777309560 | 16.67° C | 26% | 1017.6 hPa | 0 mm | - | - | - |
| 1777308655 | 16.67° C | 27% | 1017.7 hPa | 0 mm | - | - | - |
| 1777308354 | 16.67° C | 27% | 1017.7 hPa | 0 mm | - | - | - |
| 1777308052 | 16.67° C | 27% | 1017.8 hPa | 0 mm | - | - | - |
| 1777307750 | 16.67° C | 26% | 1017.7 hPa | 0 mm | - | - | - |
| 1777307452 | 16.67° C | 26% | 1017.8 hPa | 0 mm | - | - | - |
| 1777307147 | 16.67° C | 25% | 1017.7 hPa | 0 mm | - | - | - |
| 1777306845 | 16.67° C | 25% | 1017.7 hPa | 0 mm | - | - | - |
| 1777306543 | 17.22° C | 26% | 1017.7 hPa | 0 mm | - | - | - |
| 1777306241 | 17.22° C | 25% | 1017.7 hPa | 0 mm | - | - | - |
| 1777305940 | 17.22° C | 25% | 1017.7 hPa | 0 mm | - | - | - |
| 1777305637 | 17.22° C | 25% | 1017.7 hPa | 0 mm | - | - | - |
| 1777305034 | 17.78° C | 24% | 1017.8 hPa | 0 mm | - | - | - |
* Rain latest hour (hover to see other rain measurements)
** Current wind speed in m/s (hover to see current wind gust speed)